createdAt,value
2018-09-11T00:02:15.600Z,18.90
2018-09-11T00:04:45.481Z,18.80
2018-09-11T00:07:16.583Z,18.70
2018-09-11T00:09:46.253Z,18.50
2018-09-11T00:12:15.868Z,18.40
2018-09-11T00:14:46.400Z,18.40
2018-09-11T00:17:17.445Z,18.40
2018-09-11T00:19:50.321Z,18.30
2018-09-11T00:22:20.102Z,18.30
2018-09-11T00:24:49.925Z,18.20
2018-09-11T00:27:20.673Z,18.20
2018-09-11T00:29:50.187Z,18.20
2018-09-11T00:32:20.012Z,18.20
2018-09-11T00:34:50.451Z,18.20
2018-09-11T00:37:20.405Z,18.20
2018-09-11T00:39:50.174Z,18.10
2018-09-11T00:42:19.672Z,18.00
2018-09-11T00:44:49.383Z,18.00
2018-09-11T00:47:19.036Z,17.90
2018-09-11T00:49:50.238Z,17.80
2018-09-11T00:52:19.719Z,17.80
2018-09-11T00:54:50.700Z,17.80
2018-09-11T00:57:20.375Z,17.70
2018-09-11T00:59:50.104Z,17.70
2018-09-11T01:02:19.738Z,17.60
2018-09-11T01:04:49.974Z,17.60
2018-09-11T01:07:20.542Z,17.60
2018-09-11T01:09:51.381Z,17.60
2018-09-11T01:12:21.134Z,17.60
2018-09-11T01:14:51.119Z,17.60
2018-09-11T01:17:20.529Z,17.60
2018-09-11T01:19:50.243Z,17.50
2018-09-11T01:22:19.963Z,17.50
2018-09-11T01:24:49.713Z,17.40
2018-09-11T01:27:20.795Z,17.40
2018-09-11T01:29:50.157Z,17.30
2018-09-11T01:32:19.885Z,17.30
2018-09-11T01:34:49.883Z,17.30
2018-09-11T01:37:20.554Z,17.30
2018-09-11T01:39:50.232Z,17.30
2018-09-11T01:42:20.105Z,17.30
2018-09-11T01:44:50.152Z,17.20
2018-09-11T01:47:20.123Z,17.20
2018-09-11T01:49:50.548Z,17.10
2018-09-11T01:52:20.065Z,17.10
2018-09-11T01:54:51.803Z,17.10
2018-09-11T01:57:21.675Z,17.10
2018-09-11T01:59:51.817Z,17.10
2018-09-11T02:02:22.757Z,17.00
2018-09-11T02:04:52.674Z,17.00
2018-09-11T02:07:22.648Z,17.00
2018-09-11T02:09:52.634Z,17.00
2018-09-11T02:12:22.407Z,16.90
2018-09-11T02:14:52.067Z,17.00
2018-09-11T02:17:22.147Z,16.90
2018-09-11T02:19:52.031Z,16.90
2018-09-11T02:22:22.601Z,16.90
2018-09-11T02:24:52.239Z,16.90
2018-09-11T02:27:22.090Z,16.90
2018-09-11T02:29:52.821Z,16.80
2018-09-11T02:32:22.645Z,16.80
2018-09-11T02:34:52.283Z,16.70
2018-09-11T02:37:22.063Z,16.70
2018-09-11T02:39:51.704Z,16.70
2018-09-11T02:42:22.292Z,16.70
2018-09-11T02:44:52.381Z,16.70
2018-09-11T02:47:22.176Z,16.70
2018-09-11T02:49:51.841Z,16.70
2018-09-11T02:52:22.926Z,16.60
2018-09-11T02:54:52.717Z,16.60
2018-09-11T02:57:23.321Z,16.60
2018-09-11T02:59:53.030Z,16.60
2018-09-11T03:02:23.753Z,16.60
2018-09-11T03:04:53.795Z,16.60
2018-09-11T03:07:24.194Z,16.60
2018-09-11T03:09:54.290Z,16.60
2018-09-11T03:12:24.789Z,16.50
2018-09-11T03:14:55.937Z,16.50
2018-09-11T03:17:25.715Z,16.50
2018-09-11T03:19:56.620Z,16.50
2018-09-11T03:22:27.907Z,16.50
2018-09-11T03:24:58.586Z,16.50
2018-09-11T03:27:29.548Z,16.50
2018-09-11T03:29:59.324Z,16.40
2018-09-11T03:32:31.058Z,16.40
2018-09-11T03:35:00.821Z,16.40
2018-09-11T03:37:30.598Z,16.40
2018-09-11T03:40:00.392Z,16.30
2018-09-11T03:42:30.595Z,16.30
2018-09-11T03:44:59.983Z,16.30
2018-09-11T03:47:29.614Z,16.20
2018-09-11T03:49:59.347Z,16.20
2018-09-11T03:52:29.184Z,16.20
2018-09-11T03:54:59.646Z,16.20
2018-09-11T03:57:30.564Z,16.10
2018-09-11T04:00:00.560Z,16.10
2018-09-11T04:02:31.892Z,16.10
2018-09-11T04:05:03.666Z,16.00
2018-09-11T04:07:34.935Z,16.10
2018-09-11T04:10:04.910Z,16.00
2018-09-11T04:12:35.357Z,16.00
2018-09-11T04:15:05.678Z,16.00
2018-09-11T04:17:35.297Z,16.00
2018-09-11T04:20:04.996Z,16.00
2018-09-11T04:22:35.070Z,15.90
2018-09-11T04:25:06.877Z,15.90
2018-09-11T04:27:36.638Z,15.90
2018-09-11T04:30:06.575Z,15.90
2018-09-11T04:32:39.485Z,15.90
2018-09-11T04:35:10.757Z,15.90
2018-09-11T04:37:41.034Z,15.90
2018-09-11T04:40:11.527Z,16.00
2018-09-11T04:42:41.480Z,15.90
2018-09-11T04:45:12.595Z,15.90
2018-09-11T04:47:41.981Z,15.90
2018-09-11T04:50:13.269Z,15.90
2018-09-11T04:52:43.942Z,15.90
2018-09-11T04:55:13.920Z,15.80
2018-09-11T04:57:43.476Z,15.80
2018-09-11T05:00:14.138Z,15.80
2018-09-11T05:02:43.967Z,15.80
2018-09-11T05:05:14.901Z,15.80
2018-09-11T05:07:44.889Z,15.70
2018-09-11T05:10:14.816Z,15.80
2018-09-11T05:12:44.206Z,15.80
2018-09-11T05:15:14.685Z,15.70
2018-09-11T05:17:46.019Z,15.70
2018-09-11T05:20:15.877Z,15.70
2018-09-11T05:22:45.636Z,15.80
2018-09-11T05:25:15.639Z,15.80
2018-09-11T05:27:45.289Z,15.80
2018-09-11T05:30:15.205Z,15.80
2018-09-11T05:32:45.251Z,15.80
2018-09-11T05:35:15.473Z,15.80
2018-09-11T05:37:47.098Z,15.80
2018-09-11T05:40:16.872Z,15.80
2018-09-11T05:42:47.177Z,15.80
2018-09-11T05:45:17.328Z,15.80
2018-09-11T05:47:46.733Z,15.80
2018-09-11T05:50:16.800Z,15.80
2018-09-11T05:52:46.650Z,15.80
2018-09-11T05:55:17.027Z,15.70
2018-09-11T05:57:47.235Z,15.70
2018-09-11T06:00:17.403Z,15.70
2018-09-11T06:02:47.078Z,15.60
2018-09-11T06:05:16.833Z,15.60
2018-09-11T06:07:46.602Z,15.60
2018-09-11T06:10:20.121Z,15.60
2018-09-11T06:12:51.150Z,15.60
2018-09-11T06:15:20.834Z,15.60
2018-09-11T06:17:51.484Z,15.60
2018-09-11T06:20:21.015Z,15.60
2018-09-11T06:22:50.705Z,15.60
2018-09-11T06:25:20.632Z,15.70
2018-09-11T06:27:50.126Z,15.60
2018-09-11T06:30:19.855Z,15.60
2018-09-11T06:32:49.435Z,15.60
2018-09-11T06:35:19.051Z,15.50
2018-09-11T06:37:48.512Z,15.50
2018-09-11T06:40:18.636Z,15.50
2018-09-11T06:42:48.367Z,15.50
2018-09-11T06:45:17.866Z,15.40
2018-09-11T06:47:48.383Z,15.40
2018-09-11T06:50:17.921Z,15.40
2018-09-11T06:52:47.243Z,15.30
2018-09-11T06:55:17.202Z,15.30
2018-09-11T06:57:47.768Z,15.30
2018-09-11T07:00:18.195Z,15.30
2018-09-11T07:02:48.198Z,15.20
2018-09-11T07:05:17.822Z,15.30
2018-09-11T07:07:47.369Z,15.20
2018-09-11T07:10:17.671Z,15.30
2018-09-11T07:12:49.324Z,15.20
2018-09-11T07:15:19.227Z,15.20
2018-09-11T07:17:48.692Z,15.20
2018-09-11T07:20:18.696Z,15.20
2018-09-11T07:22:48.145Z,15.30
2018-09-11T07:25:18.040Z,15.20
2018-09-11T07:27:48.034Z,15.20
2018-09-11T07:30:18.559Z,15.20
2018-09-11T07:32:48.244Z,15.10
2018-09-11T07:35:17.705Z,15.10
2018-09-11T07:37:47.545Z,15.10
2018-09-11T07:40:18.137Z,15.00
2018-09-11T07:42:47.436Z,15.10
2018-09-11T07:45:18.196Z,15.10
2018-09-11T07:47:47.976Z,15.20
2018-09-11T07:50:17.618Z,15.20
2018-09-11T07:52:47.390Z,15.20
2018-09-11T07:55:17.102Z,15.20
2018-09-11T07:57:46.652Z,15.20
2018-09-11T08:00:16.598Z,15.30
2018-09-11T08:02:46.148Z,15.30
2018-09-11T08:05:16.131Z,15.30
2018-09-11T08:07:45.866Z,15.30
2018-09-11T08:10:16.313Z,15.30
2018-09-11T08:12:46.216Z,15.30
2018-09-11T08:15:15.815Z,15.30
2018-09-11T08:17:45.812Z,15.30
2018-09-11T08:20:15.367Z,15.20
2018-09-11T08:22:44.594Z,15.20
2018-09-11T08:25:15.575Z,15.30
2018-09-11T08:27:45.851Z,15.30
2018-09-11T08:30:15.782Z,15.30
2018-09-11T08:32:45.519Z,15.30
2018-09-11T08:35:15.338Z,15.30
2018-09-11T08:37:44.937Z,15.30
2018-09-11T08:40:14.677Z,15.30
2018-09-11T08:42:44.142Z,15.30
2018-09-11T08:45:13.844Z,15.30
2018-09-11T08:47:43.663Z,15.40
2018-09-11T08:50:13.506Z,15.40
2018-09-11T08:52:43.974Z,15.40
2018-09-11T08:55:13.479Z,15.40
2018-09-11T08:57:45.332Z,15.40
2018-09-11T09:00:14.885Z,15.40
2018-09-11T09:02:44.603Z,15.50
2018-09-11T09:05:15.787Z,15.50
2018-09-11T09:07:45.384Z,15.50
2018-09-11T09:10:15.120Z,15.50
2018-09-11T09:12:44.653Z,15.50
2018-09-11T09:15:14.443Z,15.50
2018-09-11T09:17:43.438Z,15.50
2018-09-11T09:20:13.022Z,15.50
2018-09-11T09:22:42.472Z,15.50
2018-09-11T09:25:12.181Z,15.50
2018-09-11T09:27:42.017Z,15.50
2018-09-11T09:30:11.337Z,15.60
2018-09-11T09:32:41.163Z,15.50
2018-09-11T09:35:11.186Z,15.50
2018-09-11T09:37:41.135Z,15.50
2018-09-11T09:40:10.854Z,15.50
2018-09-11T09:42:40.359Z,15.50
2018-09-11T09:45:09.963Z,15.50
2018-09-11T09:47:39.570Z,15.50
2018-09-11T09:50:09.093Z,15.40
2018-09-11T09:52:38.780Z,15.40
2018-09-11T09:55:09.408Z,15.30
2018-09-11T09:57:38.945Z,15.30
2018-09-11T10:00:08.513Z,15.30
2018-09-11T10:02:38.451Z,15.40
2018-09-11T10:05:08.062Z,15.40
2018-09-11T10:10:11.474Z,15.30
2018-09-11T10:12:42.170Z,15.30
2018-09-11T10:15:12.840Z,15.30
2018-09-11T10:17:42.635Z,15.30
2018-09-11T10:20:12.491Z,15.30
2018-09-11T10:22:41.906Z,15.30
2018-09-11T10:25:11.641Z,15.30
2018-09-11T10:27:42.697Z,15.30
2018-09-11T10:30:14.021Z,15.30
2018-09-11T10:32:43.683Z,15.30
2018-09-11T10:35:14.240Z,15.20
2018-09-11T10:37:43.758Z,15.20
2018-09-11T10:40:13.149Z,15.20
2018-09-11T10:42:42.548Z,15.30
2018-09-11T10:45:12.783Z,15.30
2018-09-11T10:47:42.607Z,15.30
2018-09-11T10:50:13.572Z,15.30
2018-09-11T10:52:42.990Z,15.30
2018-09-11T10:55:12.530Z,15.30
2018-09-11T10:57:41.899Z,15.30
2018-09-11T11:00:11.483Z,15.40
2018-09-11T11:02:41.017Z,15.40
2018-09-11T11:05:10.767Z,15.40
2018-09-11T11:07:40.454Z,15.40
2018-09-11T11:10:10.188Z,15.40
2018-09-11T11:12:40.184Z,15.30
2018-09-11T11:15:09.691Z,15.30
2018-09-11T11:17:39.274Z,15.30
2018-09-11T11:20:08.726Z,15.30
2018-09-11T11:22:37.963Z,15.40
2018-09-11T11:25:07.478Z,15.30
2018-09-11T11:27:37.104Z,15.30
2018-09-11T11:30:08.124Z,15.20
2018-09-11T11:32:38.049Z,15.20
2018-09-11T11:35:07.726Z,15.30
2018-09-11T11:37:37.696Z,15.20
2018-09-11T11:40:07.407Z,15.30
2018-09-11T11:42:37.091Z,15.30
2018-09-11T11:45:07.749Z,15.20
2018-09-11T11:47:37.322Z,15.20
2018-09-11T11:50:06.948Z,15.20
2018-09-11T11:52:36.791Z,15.20
2018-09-11T11:55:06.320Z,15.20
2018-09-11T11:57:36.068Z,15.20
2018-09-11T12:00:05.709Z,15.10
2018-09-11T12:02:36.122Z,15.20
2018-09-11T12:05:05.654Z,15.20
2018-09-11T12:07:34.973Z,15.20
2018-09-11T12:10:04.566Z,15.20
2018-09-11T12:12:34.570Z,15.30
2018-09-11T12:15:05.285Z,15.20
2018-09-11T12:17:35.575Z,15.20
2018-09-11T12:20:05.866Z,15.20
2018-09-11T12:22:35.675Z,15.10
2018-09-11T12:25:05.197Z,15.00
2018-09-11T12:27:34.493Z,15.00
2018-09-11T12:30:04.767Z,15.00
2018-09-11T12:32:35.529Z,15.00
2018-09-11T12:35:05.374Z,15.00
2018-09-11T12:37:34.955Z,15.00
2018-09-11T12:40:04.777Z,15.00
2018-09-11T12:42:35.472Z,15.00
2018-09-11T12:45:04.907Z,14.90
2018-09-11T12:47:35.215Z,14.90
2018-09-11T12:50:04.634Z,15.00
2018-09-11T12:52:34.308Z,15.00
2018-09-11T12:55:03.941Z,15.00
2018-09-11T12:57:33.523Z,15.00
2018-09-11T13:00:05.355Z,15.00
2018-09-11T13:02:35.568Z,15.00
2018-09-11T13:05:05.260Z,14.90
2018-09-11T13:07:34.867Z,15.00
2018-09-11T13:10:04.398Z,14.90
2018-09-11T13:12:33.753Z,14.90
2018-09-11T13:15:03.659Z,14.90
2018-09-11T13:17:33.648Z,15.00
2018-09-11T13:20:05.504Z,15.00
2018-09-11T13:22:35.301Z,15.10
2018-09-11T13:25:05.258Z,15.10
2018-09-11T13:27:36.430Z,15.10
2018-09-11T13:30:06.190Z,15.10
2018-09-11T13:32:35.782Z,15.00
2018-09-11T13:35:06.328Z,15.00
2018-09-11T13:37:36.028Z,15.00
2018-09-11T13:40:05.534Z,15.00
2018-09-11T13:42:36.093Z,15.00
2018-09-11T13:45:05.643Z,15.00
2018-09-11T13:47:35.568Z,15.10
2018-09-11T13:50:05.326Z,15.10
2018-09-11T13:52:34.887Z,15.10
2018-09-11T13:55:04.608Z,15.10
2018-09-11T13:57:34.199Z,15.10
2018-09-11T14:00:03.739Z,15.10
2018-09-11T14:02:33.403Z,15.10
2018-09-11T14:05:02.796Z,15.10
2018-09-11T14:07:32.339Z,15.10
2018-09-11T14:12:58.046Z,15.10
2018-09-11T14:15:27.538Z,15.10
2018-09-11T14:17:59.097Z,15.10
2018-09-11T14:20:32.320Z,15.10
2018-09-11T14:23:03.305Z,15.20
2018-09-11T14:25:37.830Z,15.10
2018-09-11T14:28:17.827Z,15.10
2018-09-11T14:30:50.833Z,15.20
2018-09-11T14:33:33.119Z,15.10
2018-09-11T14:36:11.407Z,15.20
2018-09-11T14:38:46.118Z,15.10
2018-09-11T14:41:17.873Z,15.10
2018-09-11T14:43:48.221Z,15.10
2018-09-11T14:46:41.768Z,15.00
2018-09-11T14:49:29.394Z,15.00
2018-09-11T14:52:01.248Z,15.10
2018-09-11T14:54:31.245Z,15.10
2018-09-11T14:57:02.099Z,15.20
2018-09-11T14:59:32.492Z,15.20
2018-09-11T15:02:02.797Z,15.10
2018-09-11T15:04:32.801Z,15.20
2018-09-11T15:07:04.294Z,15.30
2018-09-11T15:09:35.063Z,15.30
2018-09-11T15:12:06.348Z,15.30
2018-09-11T15:14:36.325Z,15.30
2018-09-11T15:17:06.338Z,15.30
2018-09-11T15:19:37.324Z,15.30
2018-09-11T15:22:07.909Z,15.30
2018-09-11T15:24:38.835Z,15.30
2018-09-11T15:27:08.994Z,15.30
2018-09-11T15:29:39.232Z,15.40
2018-09-11T15:32:09.100Z,15.40
2018-09-11T15:34:40.061Z,15.40
2018-09-11T15:37:11.264Z,15.30
2018-09-11T15:39:41.753Z,15.30
2018-09-11T15:42:12.330Z,15.30
2018-09-11T15:44:43.648Z,15.30
2018-09-11T15:47:14.364Z,15.30
2018-09-11T15:49:45.006Z,15.30
2018-09-11T15:52:14.987Z,15.40
2018-09-11T15:54:44.892Z,15.40
2018-09-11T15:57:15.521Z,15.40
2018-09-11T15:59:45.960Z,15.40
2018-09-11T16:02:15.764Z,15.50
2018-09-11T16:04:45.797Z,15.50
2018-09-11T16:07:15.233Z,15.50
2018-09-11T16:13:21.304Z,15.60
2018-09-11T16:15:51.894Z,15.60
2018-09-11T16:21:07.107Z,15.80
2018-09-11T16:23:42.660Z,15.80
2018-09-11T16:26:18.024Z,15.80
2018-09-11T16:31:32.545Z,15.80
2018-09-11T16:34:11.316Z,15.80
2018-09-11T16:36:43.705Z,15.80
2018-09-11T16:39:14.765Z,15.80
2018-09-11T16:41:44.930Z,15.90
2018-09-11T16:44:14.549Z,15.90
2018-09-11T16:46:45.054Z,16.00
2018-09-11T16:49:15.187Z,16.00
2018-09-11T16:51:45.725Z,16.00
2018-09-11T16:54:15.086Z,16.00
2018-09-11T16:56:44.600Z,16.10
2018-09-11T16:59:14.207Z,16.10
2018-09-11T17:01:44.203Z,16.10
2018-09-11T17:04:14.593Z,16.00
2018-09-11T17:06:44.882Z,16.00
2018-09-11T17:09:15.876Z,15.90
2018-09-11T17:11:45.497Z,16.00
2018-09-11T17:14:16.512Z,16.00
2018-09-11T17:16:46.786Z,16.00
2018-09-11T17:19:16.590Z,16.00
2018-09-11T17:21:46.279Z,15.90
2018-09-11T17:24:16.260Z,15.80
2018-09-11T17:26:45.768Z,15.90
2018-09-11T17:29:16.546Z,15.90
2018-09-11T17:31:47.041Z,15.90
2018-09-11T17:34:16.660Z,16.00
2018-09-11T17:36:46.384Z,16.10
2018-09-11T17:39:15.795Z,16.10
2018-09-11T17:41:45.727Z,16.20
2018-09-11T17:44:15.190Z,16.20
2018-09-11T17:46:44.608Z,16.20
2018-09-11T17:49:15.340Z,16.20
2018-09-11T17:51:45.396Z,16.10
2018-09-11T17:54:15.243Z,16.00
2018-09-11T17:56:45.779Z,16.10
2018-09-11T17:59:16.273Z,16.00
2018-09-11T18:01:45.708Z,16.00
2018-09-11T18:04:15.516Z,16.10
2018-09-11T18:06:45.899Z,16.30
2018-09-11T18:09:16.046Z,16.30
2018-09-11T18:11:45.617Z,16.30
2018-09-11T18:14:15.783Z,16.40
2018-09-11T18:16:45.378Z,16.50
2018-09-11T18:19:15.005Z,16.50
2018-09-11T18:21:44.951Z,16.60
2018-09-11T18:24:14.891Z,16.70
2018-09-11T18:26:44.740Z,16.80
2018-09-11T18:29:14.292Z,16.80
2018-09-11T18:31:43.902Z,16.90
2018-09-11T18:34:13.607Z,16.90
2018-09-11T18:36:44.309Z,17.00
2018-09-11T18:39:14.138Z,16.90
2018-09-11T18:41:43.921Z,16.90
2018-09-11T18:44:14.432Z,16.90
2018-09-11T18:46:44.798Z,17.00
2018-09-11T18:49:16.975Z,17.00
2018-09-11T18:51:46.741Z,17.00
2018-09-11T18:54:16.561Z,17.10
2018-09-11T18:56:46.286Z,17.10
2018-09-11T18:59:16.018Z,17.10
2018-09-11T19:01:45.862Z,17.10
2018-09-11T19:04:15.855Z,17.10
2018-09-11T19:06:45.570Z,17.00
2018-09-11T19:09:14.907Z,17.10
2018-09-11T19:11:44.376Z,17.00
2018-09-11T19:14:14.052Z,17.10
2018-09-11T19:16:47.395Z,17.20
2018-09-11T19:19:18.093Z,17.20
2018-09-11T19:21:48.317Z,17.20
2018-09-11T19:24:19.939Z,17.30
2018-09-11T19:26:50.096Z,17.30
2018-09-11T19:29:21.723Z,17.40
2018-09-11T19:31:52.800Z,17.60
2018-09-11T19:34:33.343Z,17.60
2018-09-11T19:37:05.141Z,17.70
2018-09-11T19:39:35.673Z,17.70
2018-09-11T19:42:07.977Z,17.80
2018-09-11T19:44:40.644Z,17.70
2018-09-11T19:47:18.082Z,17.80
2018-09-11T19:49:51.556Z,17.70
2018-09-11T19:55:18.482Z,17.70
2018-09-11T19:57:47.980Z,17.70
2018-09-11T20:00:17.640Z,17.80
2018-09-11T20:02:48.138Z,17.90
2018-09-11T20:05:18.277Z,17.90
2018-09-11T20:07:49.835Z,18.00
2018-09-11T20:10:19.701Z,18.00
2018-09-11T20:12:49.341Z,18.20
2018-09-11T20:15:18.808Z,18.30
2018-09-11T20:17:48.345Z,18.40
2018-09-11T20:20:18.808Z,18.60
2018-09-11T20:22:48.581Z,18.60
2018-09-11T20:25:18.397Z,18.70
2018-09-11T20:27:48.475Z,18.80
2018-09-11T20:30:18.550Z,18.80
2018-09-11T20:32:48.020Z,18.80
2018-09-11T20:35:17.695Z,18.60
2018-09-11T20:37:47.494Z,18.60
2018-09-11T20:40:17.665Z,18.60
2018-09-11T20:42:47.493Z,18.60
2018-09-11T20:45:17.486Z,18.50
2018-09-11T20:47:47.028Z,18.50
2018-09-11T20:50:17.915Z,18.60
2018-09-11T20:52:47.557Z,18.80
2018-09-11T20:55:18.079Z,18.80
2018-09-11T20:57:49.005Z,18.80
2018-09-11T21:00:20.786Z,18.80
2018-09-11T21:02:51.408Z,19.30
2018-09-11T21:05:23.132Z,19.20
2018-09-11T21:07:53.577Z,19.10
2018-09-11T21:10:23.292Z,18.90
2018-09-11T21:12:53.190Z,19.00
2018-09-11T21:15:23.173Z,19.20
2018-09-11T21:17:52.819Z,19.40
2018-09-11T21:20:22.166Z,19.50
2018-09-11T21:22:54.983Z,19.60
2018-09-11T21:25:25.032Z,19.70
2018-09-11T21:27:55.500Z,19.70
2018-09-11T21:30:25.167Z,19.70
2018-09-11T21:32:55.161Z,19.70
2018-09-11T21:35:25.422Z,19.80
2018-09-11T21:37:55.926Z,19.90
2018-09-11T21:40:25.514Z,19.80
2018-09-11T21:42:55.177Z,19.80
2018-09-11T21:45:25.142Z,19.80
2018-09-11T21:47:55.715Z,19.70
2018-09-11T21:50:25.656Z,19.60
2018-09-11T21:52:55.328Z,19.80
2018-09-11T21:55:25.496Z,20.00
2018-09-11T21:57:56.563Z,20.30
2018-09-11T22:00:26.787Z,20.00
2018-09-11T22:02:57.028Z,19.90
2018-09-11T22:05:27.319Z,19.80
2018-09-11T22:07:57.193Z,19.80
2018-09-11T22:10:26.805Z,19.90
2018-09-11T22:12:57.728Z,20.00
2018-09-11T22:15:28.455Z,20.00
2018-09-11T22:17:59.105Z,20.20
2018-09-11T22:20:29.013Z,20.20
2018-09-11T22:22:58.687Z,20.30
2018-09-11T22:25:28.333Z,20.10
2018-09-11T22:27:58.102Z,19.90
2018-09-11T22:30:27.944Z,19.80
2018-09-11T22:32:57.890Z,19.60
2018-09-11T22:35:28.253Z,19.50
2018-09-11T22:37:57.973Z,19.40
2018-09-11T22:40:27.759Z,19.20
2018-09-11T22:43:18.306Z,19.20
2018-09-11T22:45:48.623Z,19.10
2018-09-11T22:48:18.327Z,19.10
2018-09-11T22:50:48.161Z,19.10
2018-09-11T22:53:17.856Z,19.00
2018-09-11T22:55:47.631Z,18.90
2018-09-11T22:58:17.152Z,18.80
2018-09-11T23:00:46.668Z,18.80
2018-09-11T23:03:16.185Z,18.80
2018-09-11T23:05:46.322Z,18.70
2018-09-11T23:08:17.069Z,18.70
2018-09-11T23:10:46.777Z,18.70
2018-09-11T23:13:16.742Z,18.60
2018-09-11T23:15:47.271Z,18.60
2018-09-11T23:18:18.133Z,18.50
2018-09-11T23:20:47.968Z,18.50
2018-09-11T23:23:18.443Z,18.40
2018-09-11T23:25:49.958Z,18.40
2018-09-11T23:28:20.636Z,18.20
2018-09-11T23:30:50.301Z,18.20
2018-09-11T23:33:20.106Z,18.10
2018-09-11T23:35:49.905Z,18.00
2018-09-11T23:38:19.663Z,17.90
2018-09-11T23:40:49.524Z,17.80
2018-09-11T23:43:22.283Z,17.70
2018-09-11T23:45:51.981Z,17.60
2018-09-11T23:48:21.525Z,17.60
2018-09-11T23:50:51.266Z,17.50
2018-09-11T23:53:21.616Z,17.50
2018-09-11T23:55:51.127Z,17.50
2018-09-11T23:58:20.604Z,17.50
